Time;durP1;ratioP1;P1;durP2;ratioP2;P2;SDS_P1;SDS_P2;PMS_P1;PMS_P2;Temp;Humidity;BMP_temperature;BMP_pressure;BME280_temperature;BME280_humidity;BME280_pressure;Samples;Min_cycle;Max_cycle;Signal;HPM_P1;HPM_P2
2023/06/24 00:01:43;;;;;;;9.47;7.50;;;;;;;;;;5050885;28;20467;-45
2023/06/24 00:04:09;;;;;;;8.43;7.63;;;;;;;;;;5051125;28;20964;-48
2023/06/24 00:06:36;;;;;;;10.27;7.43;;;;;;;;;;5050790;28;20436;-45
2023/06/24 00:09:04;;;;;;;9.10;7.40;;;;;;;;;;5051025;28;20449;-45
2023/06/24 00:11:30;;;;;;;11.70;7.77;;;;;;;;;;5050788;28;20453;-46
2023/06/24 00:13:56;;;;;;;8.77;7.57;;;;;;;;;;5050282;28;20431;-45
2023/06/24 00:16:26;;;;;;;13.23;8.03;;;;;;;;;;5051184;28;20434;-45
2023/06/24 00:18:52;;;;;;;7.57;6.80;;;;;;;;;;5050970;28;20411;-45
2023/06/24 00:21:19;;;;;;;8.87;6.87;;;;;;;;;;5050732;28;20418;-45
2023/06/24 00:23:45;;;;;;;11.40;7.53;;;;;;;;;;5050769;28;20461;-45
2023/06/24 00:26:11;;;;;;;15.97;8.10;;;;;;;;;;5050893;28;20421;-46
2023/06/24 00:28:37;;;;;;;9.93;7.37;;;;;;;;;;5050835;28;20374;-45
2023/06/24 00:31:03;;;;;;;14.43;7.80;;;;;;;;;;5050669;28;20413;-48
2023/06/24 00:33:29;;;;;;;13.27;8.13;;;;;;;;;;5050827;28;20916;-45
2023/06/24 00:35:56;;;;;;;9.60;8.37;;;;;;;;;;5050824;28;20472;-46
2023/06/24 00:38:22;;;;;;;9.80;7.67;;;;;;;;;;5050633;28;20419;-45
2023/06/24 00:40:48;;;;;;;14.03;8.93;;;;;;;;;;5052537;28;20380;-46
2023/06/24 00:43:14;;;;;;;7.90;7.10;;;;;;;;;;5053508;28;20811;-44
2023/06/24 00:45:40;;;;;;;9.10;7.67;;;;;;;;;;5054571;28;20458;-46
2023/06/24 00:48:06;;;;;;;8.73;6.80;;;;;;;;;;5054449;28;20934;-45
2023/06/24 00:50:32;;;;;;;8.10;7.27;;;;;;;;;;5054099;28;20449;-46
2023/06/24 00:52:58;;;;;;;9.33;7.63;;;;;;;;;;5054217;28;20415;-45
2023/06/24 00:55:24;;;;;;;11.80;7.67;;;;;;;;;;5054030;28;20935;-47
2023/06/24 00:57:52;;;;;;;8.50;6.90;;;;;;;;;;5054139;28;20416;-45
2023/06/24 01:00:19;;;;;;;12.60;8.30;;;;;;;;;;5053860;28;20417;-45
2023/06/24 01:02:47;;;;;;;8.17;7.40;;;;;;;;;;5049522;28;20970;-45
2023/06/24 01:05:14;;;;;;;10.77;8.57;;;;;;;;;;5053541;28;20462;-45
2023/06/24 01:07:40;;;;;;;10.57;7.60;;;;;;;;;;5052907;28;20452;-45
2023/06/24 01:10:07;;;;;;;11.03;7.57;;;;;;;;;;5053470;28;20510;-45
2023/06/24 01:12:40;;;;;;;16.30;8.00;;;;;;;;;;5053961;28;20450;-45
2023/06/24 01:15:07;;;;;;;8.93;7.80;;;;;;;;;;5053153;28;20403;-46
2023/06/24 01:17:39;;;;;;;10.40;8.37;;;;;;;;;;5053691;28;20498;-45
2023/06/24 01:20:07;;;;;;;11.10;7.97;;;;;;;;;;5057576;28;20410;-46
2023/06/24 01:22:51;;;;;;;12.80;8.27;;;;;;;;;;5053600;28;20491;-45
2023/06/24 01:25:36;;;;;;;10.63;7.87;;;;;;;;;;5053642;28;20431;-45
2023/06/24 01:28:16;;;;;;;9.33;7.07;;;;;;;;;;5053616;28;20426;-45
2023/06/24 01:30:57;;;;;;;9.20;7.27;;;;;;;;;;5046040;28;20376;-46
2023/06/24 01:33:27;;;;;;;11.73;7.97;;;;;;;;;;5053413;28;20481;-46
2023/06/24 01:35:53;;;;;;;13.43;8.23;;;;;;;;;;5053490;28;20826;-45
2023/06/24 01:38:23;;;;;;;13.43;7.43;;;;;;;;;;5053322;28;20399;-46
2023/06/24 01:40:50;;;;;;;10.10;7.93;;;;;;;;;;5052956;28;20423;-46
2023/06/24 01:43:17;;;;;;;11.20;7.97;;;;;;;;;;5052115;28;20478;-46
2023/06/24 01:45:46;;;;;;;17.00;8.83;;;;;;;;;;5053163;28;20468;-45
2023/06/24 01:48:16;;;;;;;8.67;7.87;;;;;;;;;;5053151;28;20924;-46
2023/06/24 01:51:01;;;;;;;10.83;9.30;;;;;;;;;;5045422;28;20786;-45
2023/06/24 01:53:31;;;;;;;18.10;8.70;;;;;;;;;;5052198;28;20906;-47
2023/06/24 01:55:58;;;;;;;9.57;8.57;;;;;;;;;;5052913;28;21019;-45
2023/06/24 01:58:24;;;;;;;13.73;8.60;;;;;;;;;;5052971;28;20492;-45
2023/06/24 02:00:51;;;;;;;8.47;7.60;;;;;;;;;;5052780;28;20462;-45
2023/06/24 02:03:17;;;;;;;8.80;7.90;;;;;;;;;;5053006;28;20457;-45
2023/06/24 02:05:44;;;;;;;9.67;8.63;;;;;;;;;;5052505;28;20411;-48
2023/06/24 02:08:11;;;;;;;9.73;8.00;;;;;;;;;;5052793;28;20904;-46
2023/06/24 02:10:40;;;;;;;13.80;8.30;;;;;;;;;;5052576;28;20380;-45
2023/06/24 02:13:06;;;;;;;10.30;8.83;;;;;;;;;;5051835;28;20429;-46
2023/06/24 02:15:34;;;;;;;10.00;8.20;;;;;;;;;;5052573;28;20471;-46
2023/06/24 02:18:02;;;;;;;10.30;8.57;;;;;;;;;;5051893;28;20453;-46
2023/06/24 02:20:29;;;;;;;9.57;8.57;;;;;;;;;;5052201;28;20417;-46
2023/06/24 02:22:56;;;;;;;12.00;8.50;;;;;;;;;;5036969;28;21012;-46
2023/06/24 02:25:22;;;;;;;12.27;7.90;;;;;;;;;;5052423;28;20403;-46
2023/06/24 02:27:49;;;;;;;10.00;8.60;;;;;;;;;;5052336;28;20406;-46
2023/06/24 02:30:15;;;;;;;10.43;7.80;;;;;;;;;;5052125;28;20516;-45
2023/06/24 02:32:41;;;;;;;10.30;8.70;;;;;;;;;;5052303;28;20846;-48
2023/06/24 02:35:07;;;;;;;17.23;8.30;;;;;;;;;;5052182;28;20437;-45
2023/06/24 02:37:34;;;;;;;12.00;8.67;;;;;;;;;;5052036;28;20465;-46
2023/06/24 02:40:01;;;;;;;8.70;7.80;;;;;;;;;;5052055;28;20427;-46
2023/06/24 02:42:27;;;;;;;9.33;7.67;;;;;;;;;;5051208;28;20447;-46
2023/06/24 02:44:53;;;;;;;10.67;8.77;;;;;;;;;;5052084;28;20474;-46
2023/06/24 02:47:20;;;;;;;10.23;8.07;;;;;;;;;;5051943;28;20440;-46
2023/06/24 02:49:47;;;;;;;11.73;8.10;;;;;;;;;;5051697;28;20406;-46
2023/06/24 02:52:13;;;;;;;11.63;8.07;;;;;;;;;;5051892;28;20957;-48
2023/06/24 02:54:39;;;;;;;9.03;8.13;;;;;;;;;;5051892;28;20473;-46
2023/06/24 02:57:06;;;;;;;10.57;8.57;;;;;;;;;;5051844;28;20399;-46
2023/06/24 02:59:32;;;;;;;11.30;8.47;;;;;;;;;;5051752;28;20421;-45
2023/06/24 03:01:59;;;;;;;11.20;9.07;;;;;;;;;;5051539;28;20852;-46
2023/06/24 03:04:25;;;;;;;12.60;9.67;;;;;;;;;;5051224;28;20419;-46
2023/06/24 03:06:52;;;;;;;18.40;9.47;;;;;;;;;;5051471;28;20430;-47
2023/06/24 03:09:18;;;;;;;16.40;8.83;;;;;;;;;;5051607;28;20543;-45
2023/06/24 03:11:45;;;;;;;10.33;8.43;;;;;;;;;;5051564;28;20437;-48
2023/06/24 03:14:11;;;;;;;11.43;9.80;;;;;;;;;;5050609;28;20435;-46
2023/06/24 03:16:40;;;;;;;11.73;9.13;;;;;;;;;;5051564;28;20402;-46
2023/06/24 03:19:06;;;;;;;12.27;9.60;;;;;;;;;;5051669;28;20406;-45
2023/06/24 03:21:33;;;;;;;13.50;8.73;;;;;;;;;;5051342;28;20771;-45
2023/06/24 03:23:59;;;;;;;10.63;9.47;;;;;;;;;;5051498;28;20471;-48
2023/06/24 03:26:32;;;;;;;15.67;9.50;;;;;;;;;;5051666;28;20868;-45
2023/06/24 03:28:58;;;;;;;15.43;9.47;;;;;;;;;;5051384;28;20442;-47
2023/06/24 03:31:24;;;;;;;15.73;9.03;;;;;;;;;;5051182;28;20421;-46
2023/06/24 03:33:50;;;;;;;10.20;8.93;;;;;;;;;;5051622;28;20426;-47
2023/06/24 03:36:16;;;;;;;12.37;9.83;;;;;;;;;;5051527;28;20437;-45
2023/06/24 03:38:42;;;;;;;9.37;8.03;;;;;;;;;;5051353;28;20493;-45
2023/06/24 03:41:08;;;;;;;10.73;9.27;;;;;;;;;;5051217;28;20395;-46
2023/06/24 03:43:34;;;;;;;9.93;8.43;;;;;;;;;;5050127;28;20503;-46
2023/06/24 03:46:00;;;;;;;13.23;8.57;;;;;;;;;;5051241;28;20440;-46
2023/06/24 03:48:26;;;;;;;11.50;8.67;;;;;;;;;;5051227;28;20466;-46
2023/06/24 03:50:52;;;;;;;11.07;8.03;;;;;;;;;;5051078;28;20398;-46
2023/06/24 03:53:18;;;;;;;11.73;9.80;;;;;;;;;;5051352;28;20550;-46
2023/06/24 03:55:44;;;;;;;13.70;8.23;;;;;;;;;;5051226;28;20999;-46
2023/06/24 03:58:10;;;;;;;17.03;9.30;;;;;;;;;;5051123;28;20951;-48
2023/06/24 04:00:40;;;;;;;11.43;8.40;;;;;;;;;;5050848;28;20410;-47
2023/06/24 04:03:07;;;;;;;12.33;8.40;;;;;;;;;;5051334;28;20453;-48
2023/06/24 04:05:33;;;;;;;12.20;8.00;;;;;;;;;;5051589;28;20417;-51
2023/06/24 04:07:59;;;;;;;8.87;7.90;;;;;;;;;;5051085;28;20500;-51
2023/06/24 04:10:25;;;;;;;9.50;8.50;;;;;;;;;;5050865;28;20437;-50
2023/06/24 04:12:51;;;;;;;10.03;8.50;;;;;;;;;;5050993;28;20750;-49
2023/06/24 04:15:17;;;;;;;9.93;8.93;;;;;;;;;;5051324;28;20495;-49
2023/06/24 04:17:43;;;;;;;9.80;8.80;;;;;;;;;;5054861;28;20912;-48
2023/06/24 04:20:09;;;;;;;9.93;8.40;;;;;;;;;;5055375;28;20391;-51
2023/06/24 04:22:38;;;;;;;11.37;8.77;;;;;;;;;;5054641;28;20455;-50
2023/06/24 04:25:06;;;;;;;10.03;8.53;;;;;;;;;;5054826;28;20413;-51
2023/06/24 04:27:33;;;;;;;11.10;8.53;;;;;;;;;;5054636;28;20487;-49
2023/06/24 04:29:59;;;;;;;11.23;8.20;;;;;;;;;;5054457;28;20384;-51
2023/06/24 04:32:25;;;;;;;7.63;6.83;;;;;;;;;;5054776;28;20464;-51
2023/06/24 04:34:51;;;;;;;12.57;7.83;;;;;;;;;;5054671;28;20895;-49
2023/06/24 04:37:17;;;;;;;10.60;8.97;;;;;;;;;;5051753;28;20420;-51
2023/06/24 04:39:44;;;;;;;16.67;8.33;;;;;;;;;;5051259;28;20792;-49
2023/06/24 04:42:10;;;;;;;9.43;8.00;;;;;;;;;;5054267;28;20755;-51
2023/06/24 04:44:36;;;;;;;8.27;7.47;;;;;;;;;;5053519;28;20417;-51
2023/06/24 04:47:03;;;;;;;9.13;7.63;;;;;;;;;;5054436;28;20768;-52
2023/06/24 04:49:29;;;;;;;10.70;8.60;;;;;;;;;;5054659;28;20386;-51
2023/06/24 04:51:54;;;;;;;10.77;8.47;;;;;;;;;;5054491;28;20854;-51
2023/06/24 04:54:21;;;;;;;9.67;7.53;;;;;;;;;;5054178;28;20414;-51
2023/06/24 04:56:48;;;;;;;9.83;8.03;;;;;;;;;;5061591;28;20893;-49
2023/06/24 04:59:14;;;;;;;11.17;8.63;;;;;;;;;;5054282;28;20381;-48
2023/06/24 05:01:40;;;;;;;10.00;8.07;;;;;;;;;;5053866;28;20420;-49
2023/06/24 05:04:06;;;;;;;14.30;7.70;;;;;;;;;;5053956;28;20463;-50
2023/06/24 05:06:32;;;;;;;9.10;7.77;;;;;;;;;;5053807;28;20442;-51
2023/06/24 05:08:58;;;;;;;10.00;7.77;;;;;;;;;;5053857;28;20912;-50
2023/06/24 05:11:24;;;;;;;11.33;7.90;;;;;;;;;;5053561;28;20411;-51
2023/06/24 05:13:50;;;;;;;9.00;7.83;;;;;;;;;;5052990;28;20465;-51
2023/06/24 05:16:16;;;;;;;12.17;7.80;;;;;;;;;;5053741;28;20434;-51
2023/06/24 05:18:44;;;;;;;8.57;7.50;;;;;;;;;;5053977;28;20914;-51
2023/06/24 05:21:10;;;;;;;10.97;8.27;;;;;;;;;;5053541;28;21000;-51
2023/06/24 05:23:40;;;;;;;8.57;7.77;;;;;;;;;;5053386;28;20561;-48
2023/06/24 05:26:06;;;;;;;9.87;8.80;;;;;;;;;;5053914;28;20438;-50
2023/06/24 05:28:32;;;;;;;13.37;8.40;;;;;;;;;;5053720;28;20418;-49
2023/06/24 05:30:58;;;;;;;10.37;7.80;;;;;;;;;;5053356;28;20415;-51
2023/06/24 05:33:24;;;;;;;8.87;7.97;;;;;;;;;;5053365;28;20876;-51
2023/06/24 05:35:50;;;;;;;10.90;8.10;;;;;;;;;;5053503;28;20420;-51
2023/06/24 05:38:16;;;;;;;11.47;7.93;;;;;;;;;;5053168;28;20462;-51
2023/06/24 05:40:42;;;;;;;9.90;7.50;;;;;;;;;;5053167;28;20452;-51
2023/06/24 05:43:08;;;;;;;8.97;7.73;;;;;;;;;;5052526;28;20525;-48
2023/06/24 05:45:34;;;;;;;8.40;7.60;;;;;;;;;;5053027;28;20499;-51
2023/06/24 05:48:00;;;;;;;9.70;7.30;;;;;;;;;;5053229;28;20987;-51
2023/06/24 05:50:26;;;;;;;7.90;7.10;;;;;;;;;;5052950;28;20505;-52
2023/06/24 05:52:52;;;;;;;8.20;7.40;;;;;;;;;;5053632;28;20390;-49
2023/06/24 05:55:18;;;;;;;11.30;7.80;;;;;;;;;;5053041;28;20419;-49
2023/06/24 05:57:44;;;;;;;9.03;8.13;;;;;;;;;;5052900;28;20442;-51
2023/06/24 06:00:10;;;;;;;9.17;7.83;;;;;;;;;;5052826;28;20442;-51
2023/06/24 06:02:36;;;;;;;8.37;7.50;;;;;;;;;;5052690;28;20430;-51
2023/06/24 06:05:02;;;;;;;8.37;6.90;;;;;;;;;;5052345;28;20476;-51
2023/06/24 06:07:28;;;;;;;8.90;7.07;;;;;;;;;;5052482;28;20968;-51
2023/06/24 06:09:54;;;;;;;7.27;6.67;;;;;;;;;;5052660;28;20412;-51
2023/06/24 06:12:20;;;;;;;9.20;7.30;;;;;;;;;;5052715;28;20420;-50
2023/06/24 06:14:46;;;;;;;8.67;7.10;;;;;;;;;;5051770;28;20478;-51
2023/06/24 06:17:12;;;;;;;8.27;7.47;;;;;;;;;;5052554;28;20433;-51
2023/06/24 06:19:41;;;;;;;6.87;6.17;;;;;;;;;;5046146;28;20413;-51
2023/06/24 06:22:07;;;;;;;6.90;6.20;;;;;;;;;;5052417;28;20785;-51
2023/06/24 06:24:33;;;;;;;8.17;7.37;;;;;;;;;;5052836;28;20388;-51
2023/06/24 06:26:59;;;;;;;7.70;7.00;;;;;;;;;;5052543;28;20445;-51
2023/06/24 06:29:25;;;;;;;7.97;7.17;;;;;;;;;;5052502;28;20423;-50
2023/06/24 06:31:52;;;;;;;7.20;6.60;;;;;;;;;;5052168;28;20893;-50
2023/06/24 06:34:18;;;;;;;8.13;7.33;;;;;;;;;;5052392;28;20412;-51
2023/06/24 06:36:44;;;;;;;7.70;7.10;;;;;;;;;;5052057;28;20457;-51
2023/06/24 06:39:10;;;;;;;8.30;7.60;;;;;;;;;;5051650;28;20416;-50
2023/06/24 06:41:36;;;;;;;7.47;6.73;;;;;;;;;;5051565;28;20405;-51
2023/06/24 06:44:02;;;;;;;7.30;6.60;;;;;;;;;;5051236;28;20562;-51
2023/06/24 06:46:28;;;;;;;7.27;6.53;;;;;;;;;;5048950;28;20445;-50
2023/06/24 06:48:54;;;;;;;7.53;6.73;;;;;;;;;;5055725;28;20402;-49
2023/06/24 06:51:21;;;;;;;9.10;6.80;;;;;;;;;;5051564;28;20417;-50
2023/06/24 06:53:47;;;;;;;8.30;7.50;;;;;;;;;;5052043;28;20444;-50
2023/06/24 06:56:31;;;;;;;7.70;7.10;;;;;;;;;;5049687;28;20432;-50
2023/06/24 06:58:57;;;;;;;7.60;7.00;;;;;;;;;;5051824;28;20510;-50
2023/06/24 07:01:23;;;;;;;7.30;6.60;;;;;;;;;;5051566;28;20444;-51
2023/06/24 07:03:50;;;;;;;10.60;7.97;;;;;;;;;;5050905;28;20445;-49
2023/06/24 07:06:18;;;;;;;9.53;7.17;;;;;;;;;;5051247;28;20449;-50
2023/06/24 07:08:44;;;;;;;11.53;7.83;;;;;;;;;;5051350;28;20929;-51
2023/06/24 07:11:10;;;;;;;9.50;8.50;;;;;;;;;;5050982;28;20417;-51
2023/06/24 07:13:36;;;;;;;7.30;6.47;;;;;;;;;;5050453;28;20455;-49
2023/06/24 07:16:02;;;;;;;10.00;7.57;;;;;;;;;;5051162;28;20433;-48
2023/06/24 07:18:30;;;;;;;9.53;8.43;;;;;;;;;;5051522;28;20926;-48
2023/06/24 07:20:56;;;;;;;12.40;8.10;;;;;;;;;;5051483;28;20417;-48
2023/06/24 07:23:22;;;;;;;8.47;7.57;;;;;;;;;;5051544;28;20499;-51
2023/06/24 07:25:48;;;;;;;9.30;8.20;;;;;;;;;;5051636;28;20460;-50
2023/06/24 07:28:14;;;;;;;13.33;8.30;;;;;;;;;;5051531;28;20503;-51
2023/06/24 07:30:41;;;;;;;9.03;8.13;;;;;;;;;;5051256;28;20409;-49
2023/06/24 07:33:08;;;;;;;8.60;7.80;;;;;;;;;;5051467;28;20763;-50
2023/06/24 07:35:33;;;;;;;8.90;7.30;;;;;;;;;;5051481;28;20409;-49
2023/06/24 07:38:00;;;;;;;11.40;8.83;;;;;;;;;;5051497;28;20421;-50
2023/06/24 07:40:26;;;;;;;10.10;7.67;;;;;;;;;;5051062;28;20444;-51
2023/06/24 07:42:52;;;;;;;7.93;7.13;;;;;;;;;;5049942;28;20441;-50
2023/06/24 07:45:18;;;;;;;7.57;6.63;;;;;;;;;;5051206;28;20472;-49
2023/06/24 07:47:44;;;;;;;10.13;7.77;;;;;;;;;;5049938;28;20439;-49
2023/06/24 07:50:10;;;;;;;7.63;6.93;;;;;;;;;;5051815;28;20409;-51
2023/06/24 07:52:37;;;;;;;8.93;7.80;;;;;;;;;;5055279;28;20852;-49
2023/06/24 07:55:03;;;;;;;9.40;8.47;;;;;;;;;;5055235;28;20416;-49
2023/06/24 07:57:29;;;;;;;9.77;6.80;;;;;;;;;;5054622;28;20961;-51
2023/06/24 07:59:55;;;;;;;9.17;7.40;;;;;;;;;;5053147;28;20405;-49
2023/06/24 08:02:21;;;;;;;7.77;6.97;;;;;;;;;;5049467;28;20949;-50
2023/06/24 08:04:47;;;;;;;9.30;7.70;;;;;;;;;;5055201;28;20926;-50
2023/06/24 08:07:13;;;;;;;10.10;8.20;;;;;;;;;;5054831;28;20453;-47
2023/06/24 08:09:39;;;;;;;12.70;9.20;;;;;;;;;;5054912;28;20413;-48
2023/06/24 08:12:05;;;;;;;7.60;7.00;;;;;;;;;;5055166;28;20409;-51
2023/06/24 08:14:31;;;;;;;12.87;10.67;;;;;;;;;;5053890;28;20786;-50
2023/06/24 08:16:57;;;;;;;9.30;8.27;;;;;;;;;;5055230;28;20514;-50
2023/06/24 08:19:24;;;;;;;11.90;8.93;;;;;;;;;;5062147;28;20409;-51
2023/06/24 08:21:50;;;;;;;13.57;11.93;;;;;;;;;;5054760;28;20403;-51
2023/06/24 08:24:15;;;;;;;9.67;8.77;;;;;;;;;;5054106;28;20483;-51
2023/06/24 08:26:41;;;;;;;14.93;10.63;;;;;;;;;;5053597;28;20428;-52
2023/06/24 08:29:07;;;;;;;8.87;7.43;;;;;;;;;;5054473;28;20413;-50
2023/06/24 08:31:33;;;;;;;9.73;8.73;;;;;;;;;;5054496;28;20431;-51
2023/06/24 08:34:02;;;;;;;9.53;7.03;;;;;;;;;;5054843;28;20413;-50
2023/06/24 08:36:29;;;;;;;10.70;7.97;;;;;;;;;;5054577;28;20512;-50
2023/06/24 08:38:55;;;;;;;13.57;9.23;;;;;;;;;;5054987;28;20874;-51
2023/06/24 08:41:21;;;;;;;10.17;9.10;;;;;;;;;;5054310;28;20413;-51
2023/06/24 08:43:47;;;;;;;9.60;7.80;;;;;;;;;;5053476;28;20484;-51
2023/06/24 08:46:14;;;;;;;10.60;7.57;;;;;;;;;;5054464;28;20464;-50
2023/06/24 08:48:40;;;;;;;10.20;6.77;;;;;;;;;;5054392;28;20985;-50
2023/06/24 08:51:08;;;;;;;7.97;7.13;;;;;;;;;;5054548;28;20413;-52
2023/06/24 08:53:35;;;;;;;9.23;8.33;;;;;;;;;;5054206;28;20424;-51
2023/06/24 08:56:01;;;;;;;8.87;7.03;;;;;;;;;;5054182;28;20770;-49
2023/06/24 08:58:27;;;;;;;8.10;7.27;;;;;;;;;;5054039;28;20486;-52
2023/06/24 09:00:53;;;;;;;7.97;7.10;;;;;;;;;;5053622;28;20986;-52
2023/06/24 09:03:19;;;;;;;10.10;6.53;;;;;;;;;;5053912;28;21121;-52
2023/06/24 09:05:45;;;;;;;6.70;5.70;;;;;;;;;;5053900;28;20802;-51
2023/06/24 09:08:11;;;;;;;7.83;7.03;;;;;;;;;;5054034;28;20895;-51
2023/06/24 09:10:37;;;;;;;9.50;5.90;;;;;;;;;;5053596;28;20406;-52
2023/06/24 09:13:05;;;;;;;7.80;5.77;;;;;;;;;;5052992;28;20796;-52
2023/06/24 09:15:31;;;;;;;9.53;5.83;;;;;;;;;;5053935;28;20412;-51
2023/06/24 09:17:58;;;;;;;6.90;5.60;;;;;;;;;;5053883;28;20413;-51
2023/06/24 09:20:24;;;;;;;8.10;6.03;;;;;;;;;;5054267;28;20417;-52
2023/06/24 09:22:50;;;;;;;5.80;5.30;;;;;;;;;;5053621;28;20522;-52
2023/06/24 09:25:18;;;;;;;8.20;6.00;;;;;;;;;;5053525;28;20413;-51
2023/06/24 09:27:48;;;;;;;6.07;4.83;;;;;;;;;;5053505;28;20436;-51
2023/06/24 09:30:19;;;;;;;8.13;5.07;;;;;;;;;;5053353;28;20413;-51
2023/06/24 09:32:45;;;;;;;7.63;6.00;;;;;;;;;;5053576;28;20420;-52
2023/06/24 09:35:11;;;;;;;6.50;5.07;;;;;;;;;;5053462;28;20891;-51
2023/06/24 09:37:38;;;;;;;5.30;4.90;;;;;;;;;;5052695;28;20432;-51
2023/06/24 09:40:05;;;;;;;6.70;4.40;;;;;;;;;;5053088;28;20421;-48
2023/06/24 09:42:31;;;;;;;5.80;5.20;;;;;;;;;;5052294;28;20848;-51
2023/06/24 09:44:57;;;;;;;5.93;5.33;;;;;;;;;;5053374;28;20424;-51
2023/06/24 09:47:28;;;;;;;9.40;5.57;;;;;;;;;;5053937;28;20433;-51
2023/06/24 09:49:54;;;;;;;6.90;5.43;;;;;;;;;;5052899;28;20409;-52
2023/06/24 09:52:21;;;;;;;7.30;5.00;;;;;;;;;;5052898;28;20551;-50
2023/06/24 09:54:47;;;;;;;6.70;5.93;;;;;;;;;;5051597;28;20535;-49
2023/06/24 09:57:14;;;;;;;9.97;5.60;;;;;;;;;;5051340;28;20938;-49
2023/06/24 09:59:41;;;;;;;8.87;5.47;;;;;;;;;;5052065;28;20405;-50
2023/06/24 10:02:09;;;;;;;7.67;5.60;;;;;;;;;;5051515;28;20409;-49
2023/06/24 10:04:35;;;;;;;6.60;5.47;;;;;;;;;;5052490;28;20429;-49
2023/06/24 10:07:02;;;;;;;6.90;5.90;;;;;;;;;;5052465;28;20460;-49
2023/06/24 10:09:28;;;;;;;9.20;5.73;;;;;;;;;;5052492;28;20453;-49
2023/06/24 10:11:54;;;;;;;11.53;5.07;;;;;;;;;;5052523;28;20459;-49
2023/06/24 10:14:20;;;;;;;7.73;6.00;;;;;;;;;;5050969;28;20910;-50
2023/06/24 10:16:46;;;;;;;6.10;5.50;;;;;;;;;;5036365;28;20513;-49
2023/06/24 10:19:19;;;;;;;6.87;4.93;;;;;;;;;;5052538;28;20504;-49
2023/06/24 10:21:48;;;;;;;6.67;5.93;;;;;;;;;;5047853;28;20796;-50
2023/06/24 10:24:28;;;;;;;6.00;5.00;;;;;;;;;;5052638;28;20472;-49
2023/06/24 10:26:54;;;;;;;5.90;5.50;;;;;;;;;;5052453;28;20429;-49
2023/06/24 10:29:30;;;;;;;5.50;4.87;;;;;;;;;;5052285;28;20463;-49
2023/06/24 10:31:56;;;;;;;17.63;5.00;;;;;;;;;;5051259;28;20437;-48
2023/06/24 10:34:22;;;;;;;9.73;5.77;;;;;;;;;;5052265;28;20981;-50
2023/06/24 10:37:05;;;;;;;8.83;5.30;;;;;;;;;;5052417;28;20451;-47
2023/06/24 10:39:41;;;;;;;10.03;5.40;;;;;;;;;;5052166;28;20225;-48
2023/06/24 10:42:25;;;;;;;6.00;5.40;;;;;;;;;;5052233;28;20409;-48
2023/06/24 10:44:51;;;;;;;5.37;4.87;;;;;;;;;;5046649;28;20487;-48
2023/06/24 10:47:18;;;;;;;5.27;4.87;;;;;;;;;;5052005;28;20437;-48
2023/06/24 10:49:44;;;;;;;7.70;5.20;;;;;;;;;;5051973;28;20409;-49
2023/06/24 10:52:10;;;;;;;5.70;5.20;;;;;;;;;;5052107;28;20424;-48
2023/06/24 10:54:37;;;;;;;10.83;4.80;;;;;;;;;;5051938;28;20232;-48
2023/06/24 10:57:04;;;;;;;8.47;4.73;;;;;;;;;;5052138;28;20436;-49
2023/06/24 10:59:41;;;;;;;5.40;3.80;;;;;;;;;;5051732;28;20440;-48
2023/06/24 11:02:08;;;;;;;6.10;4.10;;;;;;;;;;5052041;28;20408;-48
2023/06/24 11:04:34;;;;;;;4.97;4.57;;;;;;;;;;5051851;28;20423;-49
2023/06/24 11:07:00;;;;;;;5.50;4.70;;;;;;;;;;5051732;28;21085;-49
2023/06/24 11:09:26;;;;;;;9.17;4.43;;;;;;;;;;5051484;28;20499;-48
2023/06/24 11:11:52;;;;;;;9.83;4.00;;;;;;;;;;5051447;28;20444;-49
2023/06/24 11:14:20;;;;;;;5.50;4.30;;;;;;;;;;5050946;28;20463;-49
2023/06/24 11:16:46;;;;;;;4.93;3.90;;;;;;;;;;5050489;28;20447;-49
2023/06/24 11:19:12;;;;;;;5.27;4.30;;;;;;;;;;5052343;28;20433;-50
2023/06/24 11:21:38;;;;;;;5.30;4.80;;;;;;;;;;5051407;28;20442;-50
2023/06/24 11:24:04;;;;;;;5.43;4.27;;;;;;;;;;5051180;28;20232;-48
2023/06/24 11:26:30;;;;;;;4.40;3.77;;;;;;;;;;5051581;28;20202;-50
2023/06/24 11:28:56;;;;;;;6.43;4.13;;;;;;;;;;5051438;28;20452;-50
2023/06/24 11:31:28;;;;;;;4.60;4.20;;;;;;;;;;5051201;28;20416;-50
2023/06/24 11:33:55;;;;;;;4.37;3.77;;;;;;;;;;5051469;28;20479;-50
2023/06/24 11:36:21;;;;;;;3.93;3.63;;;;;;;;;;5051262;28;20930;-51
2023/06/24 11:38:47;;;;;;;4.20;3.47;;;;;;;;;;5051135;28;20413;-49
2023/06/24 11:41:13;;;;;;;4.67;3.43;;;;;;;;;;5051175;28;20501;-49
2023/06/24 11:43:45;;;;;;;7.13;3.63;;;;;;;;;;5051175;28;20453;-51
2023/06/24 11:46:20;;;;;;;4.10;3.70;;;;;;;;;;5050229;28;20510;-50
2023/06/24 11:48:46;;;;;;;4.30;3.90;;;;;;;;;;5050070;28;20452;-45
2023/06/24 11:51:13;;;;;;;3.80;3.50;;;;;;;;;;5050366;28;20413;-50
2023/06/24 11:53:45;;;;;;;6.07;4.13;;;;;;;;;;5050833;28;20428;-45
2023/06/24 11:56:12;;;;;;;3.73;3.40;;;;;;;;;;5038228;28;20429;-46
2023/06/24 11:58:38;;;;;;;4.47;4.13;;;;;;;;;;5051131;28;20410;-49
2023/06/24 12:01:07;;;;;;;5.23;3.10;;;;;;;;;;5050965;28;20927;-48
2023/06/24 12:03:33;;;;;;;4.20;3.90;;;;;;;;;;5050911;28;20487;-45
2023/06/24 12:05:59;;;;;;;3.87;3.50;;;;;;;;;;5051022;28;20447;-46
2023/06/24 12:08:25;;;;;;;3.90;3.60;;;;;;;;;;5051163;28;20456;-45
2023/06/24 12:10:52;;;;;;;4.03;3.37;;;;;;;;;;5050674;28;20410;-45
2023/06/24 12:13:18;;;;;;;4.10;3.70;;;;;;;;;;5051054;28;20413;-45
2023/06/24 12:15:44;;;;;;;7.00;3.93;;;;;;;;;;5050047;28;20510;-45
2023/06/24 12:18:10;;;;;;;4.00;3.70;;;;;;;;;;5050867;28;20825;-45
2023/06/24 12:20:36;;;;;;;3.73;3.43;;;;;;;;;;5050698;28;20498;-46
2023/06/24 12:23:05;;;;;;;6.50;3.73;;;;;;;;;;5050904;28;20452;-46
2023/06/24 12:25:31;;;;;;;5.00;3.47;;;;;;;;;;5050781;28;20467;-46
2023/06/24 12:27:59;;;;;;;3.77;3.47;;;;;;;;;;5050893;28;20413;-46
2023/06/24 12:30:25;;;;;;;6.40;3.90;;;;;;;;;;5050665;28;20761;-46
2023/06/24 12:32:51;;;;;;;4.83;3.60;;;;;;;;;;5051300;28;20945;-47
2023/06/24 12:35:17;;;;;;;3.77;3.43;;;;;;;;;;5050881;28;20414;-45
2023/06/24 12:37:45;;;;;;;4.47;4.00;;;;;;;;;;5053858;28;20508;-46
2023/06/24 12:40:11;;;;;;;4.80;4.00;;;;;;;;;;5054339;28;20786;-45
2023/06/24 12:42:37;;;;;;;3.30;3.03;;;;;;;;;;5054401;28;20788;-46
2023/06/24 12:45:03;;;;;;;4.50;3.40;;;;;;;;;;5054452;28;20512;-46
2023/06/24 12:47:29;;;;;;;4.27;3.97;;;;;;;;;;5049899;28;21270;-48
2023/06/24 12:49:55;;;;;;;3.97;3.63;;;;;;;;;;5052288;28;20432;-45
2023/06/24 12:52:21;;;;;;;3.40;3.20;;;;;;;;;;5054301;28;20914;-46
2023/06/24 12:54:47;;;;;;;4.00;3.53;;;;;;;;;;5054612;28;20420;-46
2023/06/24 12:57:14;;;;;;;4.00;3.50;;;;;;;;;;5054327;28;20437;-45
2023/06/24 12:59:40;;;;;;;3.73;3.20;;;;;;;;;;5053937;28;20471;-45
2023/06/24 13:02:06;;;;;;;3.20;3.00;;;;;;;;;;5053873;28;20412;-45
2023/06/24 13:04:32;;;;;;;10.60;3.40;;;;;;;;;;5054183;28;20460;-45
2023/06/24 13:06:58;;;;;;;3.60;3.30;;;;;;;;;;5053795;28;20797;-45
2023/06/24 13:09:24;;;;;;;3.83;3.53;;;;;;;;;;5053791;28;20183;-45
2023/06/24 13:11:51;;;;;;;4.13;3.37;;;;;;;;;;5053756;28;20401;-46
2023/06/24 13:14:17;;;;;;;3.43;3.13;;;;;;;;;;5051009;28;20271;-46
2023/06/24 13:16:43;;;;;;;3.30;3.00;;;;;;;;;;5051960;28;20531;-46
2023/06/24 13:19:09;;;;;;;3.37;3.17;;;;;;;;;;5054661;28;20405;-48
2023/06/24 13:21:35;;;;;;;3.53;3.23;;;;;;;;;;5053606;28;20257;-46
2023/06/24 13:24:01;;;;;;;4.03;3.63;;;;;;;;;;5053620;28;20463;-47
2023/06/24 13:26:27;;;;;;;3.63;3.20;;;;;;;;;;5049733;28;20195;-47
2023/06/24 13:28:54;;;;;;;4.83;3.40;;;;;;;;;;5046949;28;21009;-49
2023/06/24 13:31:20;;;;;;;3.83;3.43;;;;;;;;;;5049087;28;20401;-46
2023/06/24 13:33:46;;;;;;;3.37;3.07;;;;;;;;;;5055192;28;20428;-46
2023/06/24 13:36:27;;;;;;;3.00;2.80;;;;;;;;;;5052787;28;20217;-46
2023/06/24 13:38:53;;;;;;;3.97;3.40;;;;;;;;;;5047040;28;20955;-48
2023/06/24 13:41:19;;;;;;;3.50;3.20;;;;;;;;;;5053122;28;20911;-46
2023/06/24 13:43:45;;;;;;;4.23;3.30;;;;;;;;;;5051232;28;20672;-46
2023/06/24 13:46:11;;;;;;;8.27;3.83;;;;;;;;;;5051710;28;20462;-48
2023/06/24 13:48:37;;;;;;;3.93;3.73;;;;;;;;;;5050480;28;20588;-49
2023/06/24 13:51:03;;;;;;;3.83;3.60;;;;;;;;;;5051017;28;20931;-48
2023/06/24 13:53:29;;;;;;;3.27;2.97;;;;;;;;;;5052741;28;20659;-46
2023/06/24 13:55:55;;;;;;;4.30;3.23;;;;;;;;;;5052000;28;20449;-47
2023/06/24 13:58:21;;;;;;;5.67;3.20;;;;;;;;;;5052924;28;20178;-50
2023/06/24 14:00:47;;;;;;;5.00;3.60;;;;;;;;;;5052681;28;20210;-46
2023/06/24 14:03:13;;;;;;;3.70;3.40;;;;;;;;;;5052923;28;20236;-48
2023/06/24 14:05:38;;;;;;;5.60;4.10;;;;;;;;;;5052032;28;20923;-46
2023/06/24 14:08:04;;;;;;;4.80;3.90;;;;;;;;;;5052911;28;20769;-49
2023/06/24 14:10:30;;;;;;;4.07;3.77;;;;;;;;;;5052683;28;20483;-50
2023/06/24 14:12:56;;;;;;;3.50;3.20;;;;;;;;;;5053113;28;20417;-48
2023/06/24 14:15:22;;;;;;;4.20;3.67;;;;;;;;;;5052242;28;20459;-48
2023/06/24 14:17:48;;;;;;;3.50;3.30;;;;;;;;;;5051938;28;20455;-49
2023/06/24 14:20:14;;;;;;;4.13;3.30;;;;;;;;;;5052530;28;21097;-45
2023/06/24 14:22:40;;;;;;;3.73;3.53;;;;;;;;;;5052640;28;20617;-47
2023/06/24 14:25:06;;;;;;;6.10;3.67;;;;;;;;;;5052675;28;20910;-45
2023/06/24 14:27:32;;;;;;;3.20;3.00;;;;;;;;;;5051542;28;20198;-47
2023/06/24 14:29:58;;;;;;;4.30;2.87;;;;;;;;;;5052481;28;20761;-47
2023/06/24 14:32:24;;;;;;;4.00;3.60;;;;;;;;;;5052503;28;20503;-50
2023/06/24 14:34:50;;;;;;;3.70;3.37;;;;;;;;;;5050435;28;20240;-48
2023/06/24 14:37:16;;;;;;;3.90;3.03;;;;;;;;;;5051595;28;20209;-48